sensor_id;sensor_type;location;lat;lon;timestamp;pressure;altitude;pressure_sealevel;temperature;humidity
10587;BME280;5341;47.606;7.576;2023-12-20T00:01:23;99163.19;;;6.34;68.24
10587;BME280;5341;47.606;7.576;2023-12-20T00:03:51;99155.22;;;6.34;68.81
10587;BME280;5341;47.606;7.576;2023-12-20T00:06:20;99145.59;;;6.33;68.78
10587;BME280;5341;47.606;7.576;2023-12-20T00:08:48;99138.59;;;6.32;68.64
10587;BME280;5341;47.606;7.576;2023-12-20T00:11:15;99140.44;;;6.31;68.52
10587;BME280;5341;47.606;7.576;2023-12-20T00:13:42;99131.63;;;6.31;68.66
10587;BME280;5341;47.606;7.576;2023-12-20T00:16:10;99135.94;;;6.32;68.96
10587;BME280;5341;47.606;7.576;2023-12-20T00:18:37;99138.59;;;6.32;68.48
10587;BME280;5341;47.606;7.576;2023-12-20T00:21:04;99147.25;;;6.34;69.12
10587;BME280;5341;47.606;7.576;2023-12-20T00:23:33;99142.78;;;6.34;68.71
10587;BME280;5341;47.606;7.576;2023-12-20T00:26:01;99144.59;;;6.34;68.86
10587;BME280;5341;47.606;7.576;2023-12-20T00:28:28;99133.00;;;6.35;69.22
10587;BME280;5341;47.606;7.576;2023-12-20T00:30:55;99136.63;;;6.34;68.65
10587;BME280;5341;47.606;7.576;2023-12-20T00:33:23;99132.16;;;6.34;68.47
10587;BME280;5341;47.606;7.576;2023-12-20T00:35:50;99121.53;;;6.34;68.61
10587;BME280;5341;47.606;7.576;2023-12-20T00:38:17;99114.56;;;6.33;68.88
10587;BME280;5341;47.606;7.576;2023-12-20T00:40:46;99112.72;;;6.34;69.06
10587;BME280;5341;47.606;7.576;2023-12-20T00:43:15;99121.53;;;6.34;69.38
10587;BME280;5341;47.606;7.576;2023-12-20T00:45:42;99132.16;;;6.34;68.85
10587;BME280;5341;47.606;7.576;2023-12-20T00:48:10;99123.50;;;6.32;69.26
10587;BME280;5341;47.606;7.576;2023-12-20T00:50:37;99124.50;;;6.31;68.97
10587;BME280;5341;47.606;7.576;2023-12-20T00:53:04;99124.59;;;6.30;69.10
10587;BME280;5341;47.606;7.576;2023-12-20T00:55:32;99129.09;;;6.29;69.35
10587;BME280;5341;47.606;7.576;2023-12-20T00:58:01;99129.09;;;6.29;69.51
10587;BME280;5341;47.606;7.576;2023-12-20T01:00:29;99123.78;;;6.29;69.63
10587;BME280;5341;47.606;7.576;2023-12-20T01:02:57;99132.56;;;6.30;69.64
10587;BME280;5341;47.606;7.576;2023-12-20T01:05:24;99129.91;;;6.30;69.68
10587;BME280;5341;47.606;7.576;2023-12-20T01:07:54;99131.63;;;6.31;69.55
10587;BME280;5341;47.606;7.576;2023-12-20T01:10:22;99125.47;;;6.30;69.42
10587;BME280;5341;47.606;7.576;2023-12-20T01:12:49;99130.63;;;6.32;69.66
10587;BME280;5341;47.606;7.576;2023-12-20T01:15:20;99126.00;;;6.34;69.70
10587;BME280;5341;47.606;7.576;2023-12-20T01:17:51;99125.03;;;6.35;69.66
10587;BME280;5341;47.606;7.576;2023-12-20T01:20:18;99114.41;;;6.35;69.46
10587;BME280;5341;47.606;7.576;2023-12-20T01:22:47;99123.06;;;6.37;69.32
10587;BME280;5341;47.606;7.576;2023-12-20T01:25:14;99123.06;;;6.37;69.37
10587;BME280;5341;47.606;7.576;2023-12-20T01:27:42;99130.03;;;6.38;69.66
10587;BME280;5341;47.606;7.576;2023-12-20T01:30:10;99129.19;;;6.37;69.73
10587;BME280;5341;47.606;7.576;2023-12-20T01:32:39;99123.88;;;6.37;69.27
10587;BME280;5341;47.606;7.576;2023-12-20T01:35:08;99139.00;;;6.37;69.65
10587;BME280;5341;47.606;7.576;2023-12-20T01:37:35;99142.47;;;6.37;69.49
10587;BME280;5341;47.606;7.576;2023-12-20T01:40:02;99146.97;;;6.37;69.44
10587;BME280;5341;47.606;7.576;2023-12-20T01:42:29;99155.06;;;6.35;69.32
10587;BME280;5341;47.606;7.576;2023-12-20T01:44:56;99146.13;;;6.36;69.62
10587;BME280;5341;47.606;7.576;2023-12-20T01:47:25;99154.78;;;6.38;69.17
10587;BME280;5341;47.606;7.576;2023-12-20T01:49:54;99149.47;;;6.38;69.04
10587;BME280;5341;47.606;7.576;2023-12-20T01:52:25;99144.84;;;6.40;69.52
10587;BME280;5341;47.606;7.576;2023-12-20T01:54:54;99143.16;;;6.39;69.46
10587;BME280;5341;47.606;7.576;2023-12-20T01:57:28;99146.66;;;6.40;69.56
10587;BME280;5341;47.606;7.576;2023-12-20T01:59:56;99141.34;;;6.40;69.71
10587;BME280;5341;47.606;7.576;2023-12-20T02:02:26;99123.59;;;6.40;69.38
10587;BME280;5341;47.606;7.576;2023-12-20T02:04:59;99123.59;;;6.40;69.80
10587;BME280;5341;47.606;7.576;2023-12-20T02:07:29;99123.44;;;6.42;69.82
10587;BME280;5341;47.606;7.576;2023-12-20T02:09:59;99113.69;;;6.42;70.33
10587;BME280;5341;47.606;7.576;2023-12-20T02:12:28;99121.66;;;6.42;70.23
10587;BME280;5341;47.606;7.576;2023-12-20T02:14:56;99127.78;;;6.43;70.01
10587;BME280;5341;47.606;7.576;2023-12-20T02:17:25;99125.25;;;6.41;70.29
10587;BME280;5341;47.606;7.576;2023-12-20T02:19:53;99122.59;;;6.41;70.54
10587;BME280;5341;47.606;7.576;2023-12-20T02:22:25;99110.16;;;6.42;70.20
10587;BME280;5341;47.606;7.576;2023-12-20T02:24:53;99114.63;;;6.41;70.08
10587;BME280;5341;47.606;7.576;2023-12-20T02:27:22;99107.50;;;6.42;70.02
10587;BME280;5341;47.606;7.576;2023-12-20T02:29:51;99101.34;;;6.41;70.30
10587;BME280;5341;47.606;7.576;2023-12-20T02:32:20;99102.19;;;6.42;70.37
10587;BME280;5341;47.606;7.576;2023-12-20T02:34:48;99100.41;;;6.42;70.29
10587;BME280;5341;47.606;7.576;2023-12-20T02:37:16;99103.06;;;6.42;69.95
10587;BME280;5341;47.606;7.576;2023-12-20T02:39:46;99105.72;;;6.42;70.04
10587;BME280;5341;47.606;7.576;2023-12-20T02:42:13;99103.72;;;6.44;69.90
10587;BME280;5341;47.606;7.576;2023-12-20T02:44:41;99095.75;;;6.44;70.15
10587;BME280;5341;47.606;7.576;2023-12-20T02:47:08;99095.47;;;6.47;71.07
10587;BME280;5341;47.606;7.576;2023-12-20T02:49:36;99095.47;;;6.47;70.52
10587;BME280;5341;47.606;7.576;2023-12-20T02:52:04;99091.13;;;6.46;70.68
10587;BME280;5341;47.606;7.576;2023-12-20T02:54:32;99091.97;;;6.47;70.42
10587;BME280;5341;47.606;7.576;2023-12-20T02:57:01;99096.28;;;6.48;70.77
10587;BME280;5341;47.606;7.576;2023-12-20T02:59:28;99087.50;;;6.47;70.63
10587;BME280;5341;47.606;7.576;2023-12-20T03:01:55;99093.78;;;6.46;70.56
10587;BME280;5341;47.606;7.576;2023-12-20T03:04:23;99102.59;;;6.47;71.02
10587;BME280;5341;47.606;7.576;2023-12-20T03:06:51;99090.97;;;6.48;71.22
10587;BME280;5341;47.606;7.576;2023-12-20T03:09:18;99086.50;;;6.49;71.24
10587;BME280;5341;47.606;7.576;2023-12-20T03:11:46;99096.16;;;6.50;71.05
10587;BME280;5341;47.606;7.576;2023-12-20T03:14:15;99101.59;;;6.48;71.39
10587;BME280;5341;47.606;7.576;2023-12-20T03:16:47;99102.28;;;6.50;70.92
10587;BME280;5341;47.606;7.576;2023-12-20T03:19:15;99105.09;;;6.49;70.93
10587;BME280;5341;47.606;7.576;2023-12-20T03:21:42;99110.41;;;6.49;71.54
10587;BME280;5341;47.606;7.576;2023-12-20T03:24:10;99113.06;;;6.49;71.43
10587;BME280;5341;47.606;7.576;2023-12-20T03:26:37;99105.94;;;6.49;71.29
10587;BME280;5341;47.606;7.576;2023-12-20T03:29:05;99113.06;;;6.49;71.52
10587;BME280;5341;47.606;7.576;2023-12-20T03:31:36;99104.13;;;6.50;71.40
10587;BME280;5341;47.606;7.576;2023-12-20T03:34:04;99105.94;;;6.49;71.61
10587;BME280;5341;47.606;7.576;2023-12-20T03:36:31;99108.59;;;6.49;71.22
10587;BME280;5341;47.606;7.576;2023-12-20T03:38:59;99102.28;;;6.50;71.34
10587;BME280;5341;47.606;7.576;2023-12-20T03:41:26;99104.13;;;6.50;71.57
10587;BME280;5341;47.606;7.576;2023-12-20T03:43:54;99107.59;;;6.50;71.30
10587;BME280;5341;47.606;7.576;2023-12-20T03:46:21;99103.13;;;6.51;71.26
10587;BME280;5341;47.606;7.576;2023-12-20T03:48:50;99111.94;;;6.51;71.38
10587;BME280;5341;47.606;7.576;2023-12-20T03:51:17;99111.09;;;6.51;71.68
10587;BME280;5341;47.606;7.576;2023-12-20T03:53:45;99110.94;;;6.52;71.32
10587;BME280;5341;47.606;7.576;2023-12-20T03:56:12;99118.91;;;6.52;71.57
10587;BME280;5341;47.606;7.576;2023-12-20T03:58:40;99119.75;;;6.53;71.34
10587;BME280;5341;47.606;7.576;2023-12-20T04:01:09;99126.75;;;6.54;71.53
10587;BME280;5341;47.606;7.576;2023-12-20T04:03:38;99121.41;;;6.54;71.67
10587;BME280;5341;47.606;7.576;2023-12-20T04:06:07;99128.44;;;6.55;71.39
10587;BME280;5341;47.606;7.576;2023-12-20T04:08:36;99121.16;;;6.57;71.53
10587;BME280;5341;47.606;7.576;2023-12-20T04:11:04;99122.13;;;6.56;71.42
10587;BME280;5341;47.606;7.576;2023-12-20T04:13:31;99126.47;;;6.57;71.35
10587;BME280;5341;47.606;7.576;2023-12-20T04:16:00;99125.47;;;6.58;71.63
10587;BME280;5341;47.606;7.576;2023-12-20T04:18:28;99124.66;;;6.57;71.30
10587;BME280;5341;47.606;7.576;2023-12-20T04:20:55;99124.50;;;6.59;71.67
10587;BME280;5341;47.606;7.576;2023-12-20T04:23:24;99126.16;;;6.60;71.71
10587;BME280;5341;47.606;7.576;2023-12-20T04:25:51;99111.88;;;6.61;71.62
10587;BME280;5341;47.606;7.576;2023-12-20T04:28:19;99106.56;;;6.61;71.68
10587;BME280;5341;47.606;7.576;2023-12-20T04:30:46;99104.75;;;6.61;71.75
10587;BME280;5341;47.606;7.576;2023-12-20T04:33:14;99112.56;;;6.63;72.10
10587;BME280;5341;47.606;7.576;2023-12-20T04:35:41;99120.53;;;6.63;72.08
10587;BME280;5341;47.606;7.576;2023-12-20T04:38:08;99137.31;;;6.63;72.20
10587;BME280;5341;47.606;7.576;2023-12-20T04:40:37;99139.00;;;6.64;72.48
10587;BME280;5341;47.606;7.576;2023-12-20T04:43:06;99138.16;;;6.64;72.42
10587;BME280;5341;47.606;7.576;2023-12-20T04:45:34;99148.78;;;6.64;72.38
10587;BME280;5341;47.606;7.576;2023-12-20T04:48:03;99148.78;;;6.64;72.33
10587;BME280;5341;47.606;7.576;2023-12-20T04:50:31;99139.81;;;6.65;72.42
10587;BME280;5341;47.606;7.576;2023-12-20T04:52:59;99142.63;;;6.63;72.35
10587;BME280;5341;47.606;7.576;2023-12-20T04:55:26;99146.13;;;6.64;72.68
10587;BME280;5341;47.606;7.576;2023-12-20T04:57:55;99157.44;;;6.66;73.05
10587;BME280;5341;47.606;7.576;2023-12-20T05:00:23;99152.13;;;6.66;72.91
10587;BME280;5341;47.606;7.576;2023-12-20T05:02:51;99141.50;;;6.66;72.89
10587;BME280;5341;47.606;7.576;2023-12-20T05:05:18;99145.03;;;6.66;73.28
10587;BME280;5341;47.606;7.576;2023-12-20T05:07:46;99138.72;;;6.67;72.99
10587;BME280;5341;47.606;7.576;2023-12-20T05:10:13;99146.69;;;6.67;72.87
10587;BME280;5341;47.606;7.576;2023-12-20T05:12:41;99149.34;;;6.67;73.30
10587;BME280;5341;47.606;7.576;2023-12-20T05:15:10;99152.84;;;6.68;73.55
10587;BME280;5341;47.606;7.576;2023-12-20T05:17:37;99157.16;;;6.69;73.76
10587;BME280;5341;47.606;7.576;2023-12-20T05:20:07;99163.31;;;6.69;73.53
10587;BME280;5341;47.606;7.576;2023-12-20T05:22:35;99155.34;;;6.69;73.45
10587;BME280;5341;47.606;7.576;2023-12-20T05:25:02;99150.88;;;6.70;73.14
10587;BME280;5341;47.606;7.576;2023-12-20T05:27:30;99165.84;;;6.71;73.17
10587;BME280;5341;47.606;7.576;2023-12-20T05:29:57;99174.63;;;6.71;73.47
10587;BME280;5341;47.606;7.576;2023-12-20T05:32:26;99170.16;;;6.72;73.34
10587;BME280;5341;47.606;7.576;2023-12-20T05:34:54;99168.34;;;6.72;73.16
10587;BME280;5341;47.606;7.576;2023-12-20T05:37:21;99173.50;;;6.74;73.58
10587;BME280;5341;47.606;7.576;2023-12-20T05:39:49;99184.97;;;6.74;73.21
10587;BME280;5341;47.606;7.576;2023-12-20T05:42:16;99181.31;;;6.75;73.35
10587;BME280;5341;47.606;7.576;2023-12-20T05:44:44;99180.34;;;6.76;73.69
10587;BME280;5341;47.606;7.576;2023-12-20T05:47:11;99173.19;;;6.77;73.17
10587;BME280;5341;47.606;7.576;2023-12-20T05:49:40;99173.19;;;6.77;73.11
10587;BME280;5341;47.606;7.576;2023-12-20T05:52:08;99182.84;;;6.78;73.78
10587;BME280;5341;47.606;7.576;2023-12-20T05:54:35;99188.16;;;6.78;73.82
10587;BME280;5341;47.606;7.576;2023-12-20T05:57:03;99195.03;;;6.81;73.55
10587;BME280;5341;47.606;7.576;2023-12-20T05:59:30;99190.53;;;6.81;74.02
10587;BME280;5341;47.606;7.576;2023-12-20T06:01:58;99199.19;;;6.83;74.52
10587;BME280;5341;47.606;7.576;2023-12-20T06:04:25;99178.63;;;6.85;74.57
10587;BME280;5341;47.606;7.576;2023-12-20T06:06:55;99188.13;;;6.88;74.99
10587;BME280;5341;47.606;7.576;2023-12-20T06:09:22;99193.28;;;6.89;75.03
10587;BME280;5341;47.606;7.576;2023-12-20T06:11:50;99186.84;;;6.92;75.69
10587;BME280;5341;47.606;7.576;2023-12-20T06:14:17;99192.84;;;6.94;75.65
10587;BME280;5341;47.606;7.576;2023-12-20T06:16:45;99199.84;;;6.95;76.20
10587;BME280;5341;47.606;7.576;2023-12-20T06:19:13;99206.53;;;6.99;76.52
10587;BME280;5341;47.606;7.576;2023-12-20T06:21:40;99211.69;;;7.00;76.87
10587;BME280;5341;47.606;7.576;2023-12-20T06:24:10;99199.94;;;7.03;77.19
10587;BME280;5341;47.606;7.576;2023-12-20T06:26:37;99189.31;;;7.03;77.81
10587;BME280;5341;47.606;7.576;2023-12-20T06:29:05;99186.50;;;7.04;77.86
10587;BME280;5341;47.606;7.576;2023-12-20T06:31:34;99194.31;;;7.06;78.14
10587;BME280;5341;47.606;7.576;2023-12-20T06:34:02;99200.31;;;7.08;78.37
10587;BME280;5341;47.606;7.576;2023-12-20T06:36:30;99196.69;;;7.09;78.73
10587;BME280;5341;47.606;7.576;2023-12-20T06:38:57;99208.16;;;7.10;78.51
10587;BME280;5341;47.606;7.576;2023-12-20T06:41:26;99207.00;;;7.12;78.29
10587;BME280;5341;47.606;7.576;2023-12-20T06:43:54;99200.69;;;7.13;78.64
10587;BME280;5341;47.606;7.576;2023-12-20T06:46:21;99203.22;;;7.15;78.75
10587;BME280;5341;47.606;7.576;2023-12-20T06:48:49;99205.88;;;7.15;78.81
10587;BME280;5341;47.606;7.576;2023-12-20T06:51:16;99211.06;;;7.16;78.69
10587;BME280;5341;47.606;7.576;2023-12-20T06:53:45;99203.91;;;7.17;79.21
10587;BME280;5341;47.606;7.576;2023-12-20T06:56:12;99218.06;;;7.17;79.42
10587;BME280;5341;47.606;7.576;2023-12-20T06:58:42;99216.06;;;7.19;79.43
10587;BME280;5341;47.606;7.576;2023-12-20T07:01:11;99227.53;;;7.20;79.68
10587;BME280;5341;47.606;7.576;2023-12-20T07:03:39;99224.88;;;7.20;79.93
10587;BME280;5341;47.606;7.576;2023-12-20T07:06:06;99218.59;;;7.21;79.93
10587;BME280;5341;47.606;7.576;2023-12-20T07:08:34;99230.88;;;7.22;79.54
10587;BME280;5341;47.606;7.576;2023-12-20T07:11:01;99231.03;;;7.20;79.59
10587;BME280;5341;47.606;7.576;2023-12-20T07:13:29;99231.03;;;7.20;79.59
10587;BME280;5341;47.606;7.576;2023-12-20T07:15:58;99245.19;;;7.21;79.29
10587;BME280;5341;47.606;7.576;2023-12-20T07:18:26;99243.34;;;7.21;79.75
10587;BME280;5341;47.606;7.576;2023-12-20T07:20:53;99256.50;;;7.23;79.79
10587;BME280;5341;47.606;7.576;2023-12-20T07:23:21;99250.19;;;7.24;80.03
10587;BME280;5341;47.606;7.576;2023-12-20T07:25:48;99247.53;;;7.24;79.80
10587;BME280;5341;47.606;7.576;2023-12-20T07:28:16;99256.34;;;7.24;80.16
10587;BME280;5341;47.606;7.576;2023-12-20T07:30:43;99256.34;;;7.24;79.91
10587;BME280;5341;47.606;7.576;2023-12-20T07:33:12;99258.84;;;7.26;79.89
10587;BME280;5341;47.606;7.576;2023-12-20T07:35:39;99257.91;;;7.27;80.08
10587;BME280;5341;47.606;7.576;2023-12-20T07:38:07;99267.56;;;7.28;79.85
10587;BME280;5341;47.606;7.576;2023-12-20T07:40:34;99269.22;;;7.29;80.37
10587;BME280;5341;47.606;7.576;2023-12-20T07:43:03;99278.72;;;7.31;80.57
10587;BME280;5341;47.606;7.576;2023-12-20T07:45:30;99284.03;;;7.31;80.55
10587;BME280;5341;47.606;7.576;2023-12-20T07:47:58;99286.72;;;7.31;80.50
10587;BME280;5341;47.606;7.576;2023-12-20T07:50:27;99291.88;;;7.33;80.67
10587;BME280;5341;47.606;7.576;2023-12-20T07:52:54;99297.03;;;7.34;81.02
10587;BME280;5341;47.606;7.576;2023-12-20T07:55:22;99300.53;;;7.35;80.73
10587;BME280;5341;47.606;7.576;2023-12-20T07:57:49;99296.88;;;7.36;80.66
10587;BME280;5341;47.606;7.576;2023-12-20T08:00:17;99302.91;;;7.38;81.05
10587;BME280;5341;47.606;7.576;2023-12-20T08:02:45;99307.25;;;7.39;81.12
10587;BME280;5341;47.606;7.576;2023-12-20T08:05:12;99308.09;;;7.40;80.82
10587;BME280;5341;47.606;7.576;2023-12-20T08:07:42;99315.94;;;7.41;81.72
10587;BME280;5341;47.606;7.576;2023-12-20T08:10:10;99303.31;;;7.43;81.52
10587;BME280;5341;47.606;7.576;2023-12-20T08:12:38;99296.84;;;7.46;81.34
10587;BME280;5341;47.606;7.576;2023-12-20T08:15:07;99310.97;;;7.46;81.06
10587;BME280;5341;47.606;7.576;2023-12-20T08:17:34;99311.81;;;7.47;81.07
10587;BME280;5341;47.606;7.576;2023-12-20T08:20:02;99306.19;;;7.50;81.67
10587;BME280;5341;47.606;7.576;2023-12-20T08:22:30;99313.06;;;7.52;81.74
10587;BME280;5341;47.606;7.576;2023-12-20T08:24:59;99318.91;;;7.56;82.07
10587;BME280;5341;47.606;7.576;2023-12-20T08:27:27;99315.94;;;7.59;82.35
10587;BME280;5341;47.606;7.576;2023-12-20T08:29:54;99316.78;;;7.59;82.36
10587;BME280;5341;47.606;7.576;2023-12-20T08:32:21;99311.31;;;7.61;82.87
10587;BME280;5341;47.606;7.576;2023-12-20T08:34:49;99323.63;;;7.62;82.72
10587;BME280;5341;47.606;7.576;2023-12-20T08:37:16;99326.00;;;7.65;82.88
10587;BME280;5341;47.606;7.576;2023-12-20T08:39:44;99320.53;;;7.67;83.07
10587;BME280;5341;47.606;7.576;2023-12-20T08:42:13;99314.91;;;7.70;82.77
10587;BME280;5341;47.606;7.576;2023-12-20T08:44:41;99315.75;;;7.70;82.57
10587;BME280;5341;47.606;7.576;2023-12-20T08:47:08;99312.91;;;7.72;82.43
10587;BME280;5341;47.606;7.576;2023-12-20T08:49:38;99318.09;;;7.73;82.11
10587;BME280;5341;47.606;7.576;2023-12-20T08:52:06;99316.97;;;7.76;82.31
10587;BME280;5341;47.606;7.576;2023-12-20T08:54:34;99322.31;;;7.76;82.24
10587;BME280;5341;47.606;7.576;2023-12-20T08:57:01;99322.44;;;7.74;82.48
10587;BME280;5341;47.606;7.576;2023-12-20T08:59:31;99333.91;;;7.75;82.63
10587;BME280;5341;47.606;7.576;2023-12-20T09:01:59;99332.97;;;7.76;82.68
10587;BME280;5341;47.606;7.576;2023-12-20T09:04:26;99327.47;;;7.77;82.86
10587;BME280;5341;47.606;7.576;2023-12-20T09:06:53;99329.97;;;7.79;82.86
10587;BME280;5341;47.606;7.576;2023-12-20T09:09:21;99337.81;;;7.80;82.66
10587;BME280;5341;47.606;7.576;2023-12-20T09:11:48;99342.97;;;7.82;82.66
10587;BME280;5341;47.606;7.576;2023-12-20T09:14:17;99339.34;;;7.83;82.66
10587;BME280;5341;47.606;7.576;2023-12-20T09:16:46;99346.19;;;7.85;82.86
10587;BME280;5341;47.606;7.576;2023-12-20T09:19:14;99351.22;;;7.88;82.64
10587;BME280;5341;47.606;7.576;2023-12-20T09:21:41;99343.91;;;7.90;82.44
10587;BME280;5341;47.606;7.576;2023-12-20T09:24:08;99352.59;;;7.92;82.31
10587;BME280;5341;47.606;7.576;2023-12-20T09:26:35;99358.59;;;7.94;81.94
10587;BME280;5341;47.606;7.576;2023-12-20T09:29:05;99359.44;;;7.95;81.96
10587;BME280;5341;47.606;7.576;2023-12-20T09:31:33;99359.28;;;7.97;81.88
10587;BME280;5341;47.606;7.576;2023-12-20T09:34:05;99356.47;;;7.98;82.09
10587;BME280;5341;47.606;7.576;2023-12-20T09:36:32;99363.19;;;8.02;82.17
10587;BME280;5341;47.606;7.576;2023-12-20T09:39:02;99368.34;;;8.04;82.33
10587;BME280;5341;47.606;7.576;2023-12-20T09:41:32;99370.72;;;8.07;82.65
10587;BME280;5341;47.606;7.576;2023-12-20T09:44:03;99374.72;;;8.11;82.70
10587;BME280;5341;47.606;7.576;2023-12-20T09:46:33;99367.28;;;8.14;82.99
10587;BME280;5341;47.606;7.576;2023-12-20T09:49:02;99373.16;;;8.18;82.59
10587;BME280;5341;47.606;7.576;2023-12-20T09:51:32;99377.31;;;8.20;82.36
10587;BME280;5341;47.606;7.576;2023-12-20T09:54:02;99372.84;;;8.21;81.96
10587;BME280;5341;47.606;7.576;2023-12-20T09:56:30;99367.34;;;8.22;82.03
10587;BME280;5341;47.606;7.576;2023-12-20T09:59:00;99368.34;;;8.21;81.35
10587;BME280;5341;47.606;7.576;2023-12-20T10:01:28;99364.16;;;8.19;81.09
10587;BME280;5341;47.606;7.576;2023-12-20T10:03:58;99360.81;;;8.17;80.88
10587;BME280;5341;47.606;7.576;2023-12-20T10:06:27;99361.81;;;8.16;80.44
10587;BME280;5341;47.606;7.576;2023-12-20T10:08:57;99359.31;;;8.14;80.43
10587;BME280;5341;47.606;7.576;2023-12-20T10:11:25;99353.28;;;8.12;79.83
10587;BME280;5341;47.606;7.576;2023-12-20T10:13:59;99358.75;;;8.11;79.62
10587;BME280;5341;47.606;7.576;2023-12-20T10:16:28;99356.25;;;8.09;79.80
10587;BME280;5341;47.606;7.576;2023-12-20T10:18:57;99353.72;;;8.08;79.17
10587;BME280;5341;47.606;7.576;2023-12-20T10:21:25;99349.56;;;8.05;78.91
10587;BME280;5341;47.606;7.576;2023-12-20T10:23:54;99344.22;;;8.05;79.13
10587;BME280;5341;47.606;7.576;2023-12-20T10:26:25;99339.06;;;8.04;79.21
10587;BME280;5341;47.606;7.576;2023-12-20T10:28:55;99336.53;;;8.02;78.92
10587;BME280;5341;47.606;7.576;2023-12-20T10:31:26;99337.38;;;8.03;78.54
10587;BME280;5341;47.606;7.576;2023-12-20T10:33:56;99330.22;;;8.03;78.30
10587;BME280;5341;47.606;7.576;2023-12-20T10:36:24;99332.88;;;8.03;78.39
10587;BME280;5341;47.606;7.576;2023-12-20T10:38:53;99329.38;;;8.03;78.33
10587;BME280;5341;47.606;7.576;2023-12-20T10:41:26;99329.22;;;8.04;78.22
10587;BME280;5341;47.606;7.576;2023-12-20T10:43:59;99328.09;;;8.07;77.71
10587;BME280;5341;47.606;7.576;2023-12-20T10:46:27;99327.25;;;8.06;77.71
10587;BME280;5341;47.606;7.576;2023-12-20T10:48:56;99320.09;;;8.07;77.45
10587;BME280;5341;47.606;7.576;2023-12-20T10:51:25;99318.94;;;8.09;77.38
10587;BME280;5341;47.606;7.576;2023-12-20T10:53:55;99316.69;;;8.14;77.45
10587;BME280;5341;47.606;7.576;2023-12-20T10:56:22;99311.72;;;8.19;77.38
10587;BME280;5341;47.606;7.576;2023-12-20T10:58:52;99317.72;;;8.21;76.81
10587;BME280;5341;47.606;7.576;2023-12-20T11:01:21;99317.03;;;8.19;76.73
10587;BME280;5341;47.606;7.576;2023-12-20T11:03:51;99320.69;;;8.18;76.79
10587;BME280;5341;47.606;7.576;2023-12-20T11:06:27;99315.06;;;8.21;76.29
10587;BME280;5341;47.606;7.576;2023-12-20T11:09:03;99311.41;;;8.22;76.20
10587;BME280;5341;47.606;7.576;2023-12-20T11:11:49;99312.13;;;8.25;76.05
10587;BME280;5341;47.606;7.576;2023-12-20T11:14:23;99316.59;;;8.24;76.16
10587;BME280;5341;47.606;7.576;2023-12-20T11:17:05;99324.72;;;8.22;76.11
10587;BME280;5341;47.606;7.576;2023-12-20T11:19:36;99323.06;;;8.21;75.84
10587;BME280;5341;47.606;7.576;2023-12-20T11:22:04;99324.88;;;8.21;75.91
10587;BME280;5341;47.606;7.576;2023-12-20T11:24:33;99322.38;;;8.19;75.74
10587;BME280;5341;47.606;7.576;2023-12-20T11:27:04;99326.34;;;8.15;75.72
10587;BME280;5341;47.606;7.576;2023-12-20T11:29:34;99325.66;;;8.13;75.27
10587;BME280;5341;47.606;7.576;2023-12-20T11:32:03;99327.63;;;8.11;75.97
10587;BME280;5341;47.606;7.576;2023-12-20T11:34:51;99326.78;;;8.11;75.54
10587;BME280;5341;47.606;7.576;2023-12-20T11:37:20;99332.50;;;8.16;75.75
10587;BME280;5341;47.606;7.576;2023-12-20T11:39:54;99341.69;;;8.21;75.50
10587;BME280;5341;47.606;7.576;2023-12-20T11:42:22;99343.09;;;8.26;75.44
10587;BME280;5341;47.606;7.576;2023-12-20T11:44:51;99333.78;;;8.30;75.26
10587;BME280;5341;47.606;7.576;2023-12-20T11:47:18;99337.81;;;8.34;74.85
10587;BME280;5341;47.606;7.576;2023-12-20T11:49:47;99328.72;;;8.36;74.60
10587;BME280;5341;47.606;7.576;2023-12-20T11:52:14;99327.25;;;8.42;74.47
10587;BME280;5341;47.606;7.576;2023-12-20T11:54:43;99330.28;;;8.47;74.34
10587;BME280;5341;47.606;7.576;2023-12-20T11:57:11;99323.34;;;8.54;74.48
10587;BME280;5341;47.606;7.576;2023-12-20T11:59:39;99316.41;;;8.61;73.77
10587;BME280;5341;47.606;7.576;2023-12-20T12:02:11;99327.28;;;8.68;73.79
10587;BME280;5341;47.606;7.576;2023-12-20T12:04:41;99325.69;;;8.75;73.30
10587;BME280;5341;47.606;7.576;2023-12-20T12:07:09;99334.88;;;8.80;73.17
10587;BME280;5341;47.606;7.576;2023-12-20T12:09:36;99325.72;;;8.83;72.79
10587;BME280;5341;47.606;7.576;2023-12-20T12:12:04;99329.09;;;8.85;72.70
10587;BME280;5341;47.606;7.576;2023-12-20T12:14:33;99331.44;;;8.88;72.32
10587;BME280;5341;47.606;7.576;2023-12-20T12:17:03;99338.09;;;8.92;72.33
10587;BME280;5341;47.606;7.576;2023-12-20T12:19:33;99335.28;;;8.94;71.38
10587;BME280;5341;47.606;7.576;2023-12-20T12:22:06;99328.78;;;8.96;70.78
10587;BME280;5341;47.606;7.576;2023-12-20T12:24:36;99340.00;;;9.00;70.98
10587;BME280;5341;47.606;7.576;2023-12-20T12:27:06;99337.53;;;9.06;70.47
10587;BME280;5341;47.606;7.576;2023-12-20T12:29:34;99338.06;;;9.10;69.68
10587;BME280;5341;47.606;7.576;2023-12-20T12:32:05;99351.91;;;9.14;69.30
10587;BME280;5341;47.606;7.576;2023-12-20T12:34:36;99349.91;;;9.16;68.73
10587;BME280;5341;47.606;7.576;2023-12-20T12:37:06;99356.09;;;9.16;68.77
10587;BME280;5341;47.606;7.576;2023-12-20T12:39:34;99365.94;;;9.16;68.41
10587;BME280;5341;47.606;7.576;2023-12-20T12:42:02;99367.09;;;9.13;67.99
10587;BME280;5341;47.606;7.576;2023-12-20T12:44:29;99363.75;;;9.11;67.88
10587;BME280;5341;47.606;7.576;2023-12-20T12:46:57;99363.91;;;9.09;67.85
10587;BME280;5341;47.606;7.576;2023-12-20T12:49:24;99366.72;;;9.08;67.50
10587;BME280;5341;47.606;7.576;2023-12-20T12:51:54;99368.53;;;9.07;67.45
10587;BME280;5341;47.606;7.576;2023-12-20T12:54:24;99361.84;;;9.03;67.59
10587;BME280;5341;47.606;7.576;2023-12-20T12:56:51;99371.84;;;9.01;67.19
10587;BME280;5341;47.606;7.576;2023-12-20T12:59:19;99378.19;;;9.00;66.94
10587;BME280;5341;47.606;7.576;2023-12-20T13:01:47;99375.50;;;9.00;67.00
10587;BME280;5341;47.606;7.576;2023-12-20T13:04:14;99372.00;;;9.00;67.31
10587;BME280;5341;47.606;7.576;2023-12-20T13:06:42;99368.50;;;8.99;66.95
10587;BME280;5341;47.606;7.576;2023-12-20T13:09:12;99370.19;;;9.00;66.62
10587;BME280;5341;47.606;7.576;2023-12-20T13:11:40;99368.34;;;9.01;66.28
10587;BME280;5341;47.606;7.576;2023-12-20T13:14:07;99358.50;;;9.01;66.53
10587;BME280;5341;47.606;7.576;2023-12-20T13:16:40;99356.69;;;9.02;66.58
10587;BME280;5341;47.606;7.576;2023-12-20T13:19:08;99356.69;;;9.02;66.38
10587;BME280;5341;47.606;7.576;2023-12-20T13:21:36;99359.34;;;9.02;65.91
10587;BME280;5341;47.606;7.576;2023-12-20T13:24:05;99355.00;;;9.01;65.76
10587;BME280;5341;47.606;7.576;2023-12-20T13:26:35;99355.16;;;8.99;64.98
10587;BME280;5341;47.606;7.576;2023-12-20T13:29:02;99355.84;;;9.01;64.78